createdAt,value
2019-02-16T00:01:42.258Z,78.38
2019-02-16T00:04:12.450Z,78.45
2019-02-16T00:06:42.858Z,78.55
2019-02-16T00:09:13.143Z,78.61
2019-02-16T00:11:43.353Z,78.57
2019-02-16T00:14:13.585Z,78.53
2019-02-16T00:16:43.717Z,78.54
2019-02-16T00:19:13.830Z,78.59
2019-02-16T00:21:44.106Z,78.64
2019-02-16T00:24:14.166Z,78.67
2019-02-16T00:26:44.574Z,78.70
2019-02-16T00:29:14.726Z,78.70
2019-02-16T00:31:45.204Z,78.64
2019-02-16T00:34:15.441Z,78.68
2019-02-16T00:36:45.638Z,78.76
2019-02-16T00:39:15.877Z,78.79
2019-02-16T00:41:46.130Z,78.76
2019-02-16T00:44:16.399Z,78.79
2019-02-16T00:46:46.736Z,78.84
2019-02-16T00:49:17.271Z,78.81
2019-02-16T00:51:48.130Z,78.87
2019-02-16T00:54:18.286Z,78.86
2019-02-16T00:56:48.669Z,78.92
2019-02-16T00:59:18.881Z,78.83
2019-02-16T01:01:49.261Z,78.81
2019-02-16T01:04:19.533Z,78.74
2019-02-16T01:06:49.747Z,78.79
2019-02-16T01:09:19.926Z,78.85
2019-02-16T01:11:50.216Z,78.83
2019-02-16T01:14:20.735Z,78.75
2019-02-16T01:16:51.189Z,78.70
2019-02-16T01:19:21.402Z,78.65
2019-02-16T01:21:51.668Z,78.57
2019-02-16T01:24:21.954Z,78.41
2019-02-16T01:26:52.022Z,78.33
2019-02-16T01:29:22.318Z,78.29
2019-02-16T01:31:52.727Z,78.16
2019-02-16T01:34:23.169Z,78.01
2019-02-16T01:36:53.654Z,77.87
2019-02-16T01:39:24.155Z,77.63
2019-02-16T01:41:54.427Z,77.40
2019-02-16T01:44:24.832Z,77.20
2019-02-16T01:46:56.921Z,77.10
2019-02-16T01:49:27.253Z,77.03
2019-02-16T01:51:57.703Z,76.91
2019-02-16T01:54:28.102Z,76.86
2019-02-16T01:56:58.516Z,76.73
2019-02-16T01:59:28.850Z,76.63
2019-02-16T02:01:59.216Z,76.49
2019-02-16T02:04:29.582Z,76.44
2019-02-16T02:07:00.125Z,76.25
2019-02-16T02:09:30.522Z,76.08
2019-02-16T02:12:00.888Z,76.08
2019-02-16T02:14:31.648Z,76.03
2019-02-16T02:17:01.903Z,76.01
2019-02-16T02:19:32.391Z,75.97
2019-02-16T02:22:02.705Z,75.82
2019-02-16T02:24:33.204Z,75.75
2019-02-16T02:27:03.591Z,75.56
2019-02-16T02:29:34.070Z,75.38
2019-02-16T02:32:04.297Z,75.21
2019-02-16T02:34:34.601Z,75.18
2019-02-16T02:37:04.901Z,75.04
2019-02-16T02:39:35.235Z,74.89
2019-02-16T02:42:06.960Z,74.80
2019-02-16T02:44:37.559Z,74.70
2019-02-16T02:47:07.970Z,74.60
2019-02-16T02:49:38.349Z,74.58
2019-02-16T02:52:08.709Z,74.53
2019-02-16T02:54:39.033Z,74.48
2019-02-16T02:57:09.497Z,74.42
2019-02-16T02:59:39.945Z,74.39
2019-02-16T03:02:10.294Z,74.39
2019-02-16T03:04:40.769Z,74.33
2019-02-16T03:07:11.182Z,74.21
2019-02-16T03:09:41.934Z,74.08
2019-02-16T03:12:12.323Z,74.07
2019-02-16T03:14:42.820Z,74.05
2019-02-16T03:17:13.335Z,74.00
2019-02-16T03:19:43.861Z,73.98
2019-02-16T03:22:14.484Z,73.96
2019-02-16T03:24:45.098Z,73.95
2019-02-16T03:27:31.964Z,73.91
2019-02-16T03:30:49.927Z,73.86
2019-02-16T03:33:49.305Z,73.90
2019-02-16T03:37:52.315Z,74.01
2019-02-16T03:40:22.645Z,74.02
2019-02-16T03:42:59.212Z,74.11
2019-02-16T03:45:38.288Z,74.06
2019-02-16T03:48:08.667Z,74.03
2019-02-16T03:50:38.942Z,74.02
2019-02-16T03:53:09.075Z,74.00
2019-02-16T03:55:39.305Z,74.01
2019-02-16T03:58:09.484Z,74.00
2019-02-16T04:00:39.604Z,74.03
2019-02-16T04:03:09.929Z,74.04
2019-02-16T04:05:40.513Z,74.07
2019-02-16T04:08:10.781Z,74.11
2019-02-16T04:10:41.044Z,74.12
2019-02-16T04:13:11.214Z,74.13
2019-02-16T04:15:41.718Z,74.19
2019-02-16T04:18:11.811Z,74.18
2019-02-16T04:20:44.064Z,74.15
2019-02-16T04:23:14.170Z,74.17
2019-02-16T04:25:44.546Z,74.23
2019-02-16T04:28:14.819Z,74.28
2019-02-16T04:30:44.957Z,74.34
2019-02-16T04:33:15.328Z,74.37
2019-02-16T04:35:45.527Z,74.41
2019-02-16T04:38:15.748Z,74.40
2019-02-16T04:40:46.003Z,74.44
2019-02-16T04:43:16.168Z,74.55
2019-02-16T04:45:46.464Z,74.69
2019-02-16T04:48:16.632Z,74.80
2019-02-16T04:50:46.890Z,74.88
2019-02-16T04:53:17.258Z,74.81
2019-02-16T04:55:47.652Z,74.84
2019-02-16T04:58:17.859Z,74.86
2019-02-16T05:00:48.133Z,74.85
2019-02-16T05:03:18.242Z,74.88
2019-02-16T05:05:48.503Z,74.90
2019-02-16T05:08:18.779Z,74.99
2019-02-16T05:10:49.043Z,75.00
2019-02-16T05:13:19.251Z,74.98
2019-02-16T05:15:49.496Z,75.00
2019-02-16T05:18:19.713Z,75.04
2019-02-16T05:20:49.952Z,75.14
2019-02-16T05:23:20.173Z,75.21
2019-02-16T05:25:51.039Z,75.25
2019-02-16T05:28:21.448Z,75.29
2019-02-16T05:30:51.784Z,75.30
2019-02-16T05:33:21.859Z,75.33
2019-02-16T05:35:52.104Z,75.42
2019-02-16T05:38:22.358Z,75.42
2019-02-16T05:40:52.433Z,75.48
2019-02-16T05:43:22.607Z,75.47
2019-02-16T05:45:52.816Z,75.45
2019-02-16T05:48:23.021Z,75.51
2019-02-16T05:50:53.295Z,75.53
2019-02-16T05:53:23.606Z,75.48
2019-02-16T05:55:53.820Z,75.48
2019-02-16T05:58:23.973Z,75.46
2019-02-16T06:00:54.289Z,75.35
2019-02-16T06:03:24.637Z,75.35
2019-02-16T06:05:57.732Z,75.23
2019-02-16T06:08:28.017Z,75.16
2019-02-16T06:10:58.259Z,75.11
2019-02-16T06:13:28.401Z,75.02
2019-02-16T06:15:58.586Z,74.98
2019-02-16T06:18:28.808Z,75.00
2019-02-16T06:20:58.928Z,75.02
2019-02-16T06:23:29.110Z,75.00
2019-02-16T06:25:59.371Z,75.02
2019-02-16T06:28:29.461Z,75.05
2019-02-16T06:30:59.663Z,75.05
2019-02-16T06:33:30.086Z,74.97
2019-02-16T06:36:04.708Z,75.00
2019-02-16T06:38:34.803Z,75.02
2019-02-16T06:41:05.514Z,74.99
2019-02-16T06:43:36.048Z,75.02
2019-02-16T06:46:07.185Z,74.96
2019-02-16T06:48:37.681Z,74.99
2019-02-16T06:51:08.339Z,75.01
2019-02-16T06:53:38.844Z,74.99
2019-02-16T06:56:20.330Z,74.96
2019-02-16T06:58:50.940Z,74.93
2019-02-16T07:01:21.345Z,74.92
2019-02-16T07:03:51.810Z,74.94
2019-02-16T07:06:22.286Z,74.95
2019-02-16T07:08:52.707Z,74.87
2019-02-16T07:11:23.290Z,74.85
2019-02-16T07:13:53.924Z,74.87
2019-02-16T07:16:43.268Z,74.86
2019-02-16T07:19:20.072Z,74.91
2019-02-16T07:21:50.806Z,74.89
2019-02-16T07:24:21.431Z,74.85
2019-02-16T07:26:52.109Z,74.74
2019-02-16T07:31:54.909Z,74.57
2019-02-16T07:34:25.350Z,74.52
2019-02-16T07:36:58.916Z,74.50
2019-02-16T07:39:29.411Z,74.40
2019-02-16T07:41:59.897Z,74.34
2019-02-16T07:44:50.374Z,74.29
2019-02-16T07:47:24.585Z,74.23
2019-02-16T07:50:00.838Z,74.19
2019-02-16T07:52:50.257Z,74.15
2019-02-16T07:55:54.754Z,74.09
2019-02-16T07:58:50.013Z,73.96
2019-02-16T08:01:39.451Z,73.88
2019-02-16T08:04:15.816Z,73.75
2019-02-16T08:06:52.214Z,73.62
2019-02-16T08:09:47.379Z,73.50
2019-02-16T08:12:33.049Z,73.38
2019-02-16T08:15:25.381Z,73.32
2019-02-16T08:18:13.304Z,73.15
2019-02-16T08:20:51.728Z,73.06
2019-02-16T08:23:40.530Z,73.01
2019-02-16T08:26:27.447Z,72.87
2019-02-16T08:29:14.462Z,72.76
2019-02-16T08:31:54.579Z,72.62
2019-02-16T08:34:39.886Z,72.45
2019-02-16T08:37:29.482Z,72.31
2019-02-16T08:40:15.563Z,72.14
2019-02-16T08:43:07.441Z,72.01
2019-02-16T08:45:52.778Z,71.88
2019-02-16T08:48:38.127Z,71.68
2019-02-16T08:51:46.699Z,71.53
2019-02-16T08:54:34.110Z,71.38
2019-02-16T08:57:35.371Z,71.30
2019-02-16T09:00:17.047Z,71.14
2019-02-16T09:03:07.004Z,70.98
2019-02-16T09:05:48.509Z,70.84
2019-02-16T09:08:36.534Z,70.69
2019-02-16T09:11:31.777Z,70.43
2019-02-16T09:14:22.665Z,70.37
2019-02-16T09:17:29.958Z,70.14
2019-02-16T09:20:16.031Z,70.02
2019-02-16T09:23:01.219Z,69.77
2019-02-16T09:25:59.233Z,69.64
2019-02-16T09:28:47.440Z,69.49
2019-02-16T09:31:39.315Z,69.28
2019-02-16T09:34:18.381Z,69.21
2019-02-16T09:37:07.228Z,69.11
2019-02-16T09:39:55.264Z,69.04
2019-02-16T09:42:37.298Z,68.93
2019-02-16T09:45:17.716Z,68.86
2019-02-16T09:47:57.797Z,68.73
2019-02-16T09:50:45.580Z,68.65
2019-02-16T09:53:37.508Z,68.52
2019-02-16T09:56:21.420Z,68.41
2019-02-16T09:59:16.537Z,68.20
2019-02-16T10:02:04.185Z,67.95
2019-02-16T10:04:54.770Z,67.83
2019-02-16T10:07:45.155Z,67.68
2019-02-16T10:10:27.308Z,67.58
2019-02-16T10:13:13.325Z,67.31
2019-02-16T10:16:11.368Z,67.19
2019-02-16T10:19:05.085Z,67.08
2019-02-16T10:21:54.982Z,66.85
2019-02-16T10:24:44.177Z,66.50
2019-02-16T10:27:39.145Z,66.36
2019-02-16T10:30:20.321Z,66.10
2019-02-16T10:33:12.574Z,65.96
2019-02-16T10:36:08.133Z,65.75
2019-02-16T10:39:02.557Z,65.71
2019-02-16T10:41:50.892Z,65.49
2019-02-16T10:44:42.788Z,65.43
2019-02-16T10:47:40.942Z,65.21
2019-02-16T10:50:26.521Z,65.05
2019-02-16T10:53:18.714Z,64.93
2019-02-16T10:56:13.675Z,64.79
2019-02-16T10:59:08.688Z,64.78
2019-02-16T11:02:10.368Z,64.65
2019-02-16T11:05:03.656Z,64.42
2019-02-16T11:07:42.704Z,64.35
2019-02-16T11:10:22.804Z,64.03
2019-02-16T11:13:02.648Z,63.81
2019-02-16T11:15:47.252Z,63.75
2019-02-16T11:18:39.313Z,63.60
2019-02-16T11:21:23.670Z,63.40
2019-02-16T11:24:09.800Z,63.25
2019-02-16T11:27:11.838Z,63.09
2019-02-16T11:30:00.932Z,63.04
2019-02-16T11:32:43.087Z,62.85
2019-02-16T11:35:30.990Z,62.79
2019-02-16T11:38:23.029Z,62.75
2019-02-16T11:41:02.222Z,62.54
2019-02-16T11:43:41.105Z,62.41
2019-02-16T11:46:32.154Z,62.08
2019-02-16T11:49:11.473Z,61.83
2019-02-16T11:51:52.861Z,61.75
2019-02-16T11:54:33.095Z,61.46
2019-02-16T11:57:17.867Z,61.42
2019-02-16T12:00:09.983Z,61.18
2019-02-16T12:02:57.337Z,60.90
2019-02-16T12:05:35.476Z,60.84
2019-02-16T12:08:19.738Z,60.78
2019-02-16T12:11:11.925Z,60.58
2019-02-16T12:14:08.145Z,60.45
2019-02-16T12:17:02.668Z,60.29
2019-02-16T12:20:03.329Z,60.00
2019-02-16T12:22:42.967Z,59.94
2019-02-16T12:25:25.413Z,59.53
2019-02-16T12:28:08.113Z,59.10
2019-02-16T12:30:49.291Z,58.71
2019-02-16T12:33:44.469Z,58.64
2019-02-16T12:36:31.863Z,58.62
2019-02-16T12:39:22.408Z,58.30
2019-02-16T12:42:16.332Z,58.03
2019-02-16T12:45:03.563Z,57.82
2019-02-16T12:47:49.681Z,57.72
2019-02-16T12:50:47.832Z,57.42
2019-02-16T12:53:40.967Z,57.10
2019-02-16T12:56:17.797Z,56.79
2019-02-16T12:59:05.098Z,56.56
2019-02-16T13:02:02.974Z,56.26
2019-02-16T13:04:52.467Z,56.23
2019-02-16T13:07:31.171Z,56.33
2019-02-16T13:10:18.866Z,56.09
2019-02-16T13:13:08.100Z,55.97
2019-02-16T13:16:12.592Z,55.54
2019-02-16T13:19:00.058Z,54.13
2019-02-16T13:21:44.220Z,53.15
2019-02-16T13:24:21.073Z,52.35
2019-02-16T13:27:04.000Z,51.86
2019-02-16T13:29:58.609Z,51.73
2019-02-16T13:32:53.934Z,51.39
2019-02-16T13:35:58.508Z,51.07
2019-02-16T13:38:45.752Z,50.33
2019-02-16T13:41:34.805Z,49.25
2019-02-16T13:44:11.192Z,48.54
2019-02-16T13:46:58.901Z,48.64
2019-02-16T13:49:54.066Z,48.15
2019-02-16T13:52:46.158Z,48.46
2019-02-16T13:55:22.188Z,49.37
2019-02-16T13:58:08.077Z,50.53
2019-02-16T14:01:00.224Z,51.03
2019-02-16T14:03:58.551Z,51.61
2019-02-16T14:06:38.692Z,52.12
2019-02-16T14:09:14.826Z,52.36
2019-02-16T14:11:55.898Z,52.52
2019-02-16T14:14:50.713Z,52.71
2019-02-16T14:17:38.474Z,52.85
2019-02-16T14:20:09.427Z,53.14
2019-02-16T14:22:39.676Z,53.47
2019-02-16T14:25:17.013Z,53.77
2019-02-16T14:27:47.349Z,53.92
2019-02-16T14:30:17.679Z,54.11
2019-02-16T14:32:47.991Z,54.32
2019-02-16T14:35:18.235Z,54.58
2019-02-16T14:37:57.383Z,54.73
2019-02-16T14:40:31.104Z,54.78
2019-02-16T14:43:03.140Z,54.87
2019-02-16T14:45:37.338Z,55.03
2019-02-16T14:48:07.840Z,55.23
2019-02-16T14:50:38.217Z,55.46
2019-02-16T14:53:09.023Z,55.57
2019-02-16T14:55:39.299Z,55.68
2019-02-16T14:58:09.668Z,55.67
2019-02-16T15:00:39.914Z,55.75
2019-02-16T15:03:10.320Z,55.84
2019-02-16T15:05:40.609Z,55.92
2019-02-16T15:08:10.876Z,56.06
2019-02-16T15:10:41.125Z,56.14
2019-02-16T15:13:14.546Z,56.33
2019-02-16T15:15:44.840Z,56.50
2019-02-16T15:18:15.132Z,56.79
2019-02-16T15:20:45.770Z,57.14
2019-02-16T15:23:16.129Z,57.45
2019-02-16T15:25:46.434Z,57.83
2019-02-16T15:28:16.583Z,58.16
2019-02-16T15:30:46.874Z,58.44
2019-02-16T15:33:17.093Z,58.88
2019-02-16T15:35:47.314Z,59.21
2019-02-16T15:38:17.525Z,59.63
2019-02-16T15:40:48.146Z,60.02
2019-02-16T15:43:18.690Z,60.46
2019-02-16T15:45:49.205Z,60.78
2019-02-16T15:48:20.244Z,61.06
2019-02-16T15:50:50.890Z,61.37
2019-02-16T15:53:22.441Z,61.48
2019-02-16T15:55:53.177Z,61.70
2019-02-16T15:58:23.874Z,61.82
2019-02-16T16:00:54.579Z,61.99
2019-02-16T16:03:25.447Z,62.16
2019-02-16T16:05:56.020Z,62.27
2019-02-16T16:08:38.622Z,62.43
2019-02-16T16:11:17.314Z,62.59
2019-02-16T16:13:59.908Z,62.76
2019-02-16T16:16:55.737Z,62.94
2019-02-16T16:19:48.078Z,63.09
2019-02-16T16:22:52.694Z,63.19
2019-02-16T16:25:37.185Z,63.35
2019-02-16T16:28:21.194Z,63.55
2019-02-16T16:31:09.262Z,63.70
2019-02-16T16:33:57.002Z,63.85
2019-02-16T16:36:49.751Z,64.04
2019-02-16T16:39:31.582Z,64.22
2019-02-16T16:42:19.763Z,64.34
2019-02-16T16:45:08.021Z,64.45
2019-02-16T16:47:55.704Z,64.60
2019-02-16T16:50:55.874Z,64.76
2019-02-16T16:53:36.152Z,64.88
2019-02-16T16:56:28.700Z,65.06
2019-02-16T16:59:16.637Z,65.16
2019-02-16T17:02:05.989Z,65.30
2019-02-16T17:04:53.818Z,65.45
2019-02-16T17:07:45.886Z,65.63
2019-02-16T17:10:23.129Z,65.95
2019-02-16T17:13:02.018Z,66.26
2019-02-16T17:15:39.289Z,66.50
2019-02-16T17:18:24.588Z,66.81
2019-02-16T17:21:27.195Z,67.10
2019-02-16T17:24:05.238Z,67.29
2019-02-16T17:26:50.735Z,67.44
2019-02-16T17:29:41.748Z,67.54
2019-02-16T17:32:26.625Z,67.65
2019-02-16T17:35:07.535Z,68.00
2019-02-16T17:37:44.776Z,68.00
2019-02-16T17:40:37.982Z,67.96
2019-02-16T17:43:33.418Z,67.87
2019-02-16T17:46:23.003Z,67.81
2019-02-16T17:49:02.730Z,67.81
2019-02-16T17:52:01.975Z,67.85
2019-02-16T17:55:02.632Z,67.87
2019-02-16T17:57:36.898Z,67.96
2019-02-16T18:00:27.258Z,68.04
2019-02-16T18:03:10.052Z,68.13
2019-02-16T18:06:11.345Z,68.19
2019-02-16T18:08:57.129Z,68.24
2019-02-16T18:11:35.797Z,68.31
2019-02-16T18:14:41.307Z,68.38
2019-02-16T18:17:37.187Z,68.40
2019-02-16T18:20:44.812Z,68.47
2019-02-16T18:23:29.379Z,68.53
2019-02-16T18:26:27.715Z,68.56
2019-02-16T18:29:19.847Z,68.57
2019-02-16T18:32:15.003Z,68.61
2019-02-16T18:35:06.920Z,68.55
2019-02-16T18:38:02.076Z,68.54
2019-02-16T18:40:56.087Z,68.55
2019-02-16T18:43:45.927Z,68.56
2019-02-16T18:46:26.684Z,68.58
2019-02-16T18:49:28.488Z,68.61
2019-02-16T18:52:21.715Z,68.62
2019-02-16T18:55:10.195Z,68.64
2019-02-16T18:57:40.304Z,68.75
2019-02-16T19:00:23.850Z,68.78
2019-02-16T19:03:15.976Z,68.84
2019-02-16T19:05:57.391Z,68.90
2019-02-16T19:08:48.137Z,68.99
2019-02-16T19:11:37.837Z,69.05
2019-02-16T19:14:31.471Z,69.14
2019-02-16T19:17:10.013Z,69.21
2019-02-16T19:22:56.371Z,69.37
2019-02-16T19:25:31.690Z,69.45
2019-02-16T19:28:08.625Z,69.58
2019-02-16T19:30:53.561Z,69.67
2019-02-16T19:33:46.574Z,69.75
2019-02-16T19:36:42.689Z,69.85
2019-02-16T19:39:32.962Z,69.93
2019-02-16T19:42:13.045Z,70.06
2019-02-16T19:45:14.563Z,70.09
2019-02-16T19:48:06.019Z,70.14
2019-02-16T19:50:45.803Z,70.16
2019-02-16T19:53:33.999Z,70.23
2019-02-16T19:56:22.497Z,70.30
2019-02-16T19:59:23.704Z,70.32
2019-02-16T20:02:13.523Z,70.38
2019-02-16T20:04:58.138Z,70.46
2019-02-16T20:07:41.133Z,70.53
2019-02-16T20:10:27.725Z,70.58
2019-02-16T20:13:32.719Z,70.63
2019-02-16T20:16:09.181Z,70.70
2019-02-16T20:19:16.637Z,70.78
2019-02-16T20:22:21.283Z,70.77
2019-02-16T20:25:08.415Z,70.86
2019-02-16T20:28:00.740Z,70.91
2019-02-16T20:30:50.205Z,70.97
2019-02-16T20:33:45.734Z,71.00
2019-02-16T20:36:33.462Z,71.09
2019-02-16T20:39:25.867Z,71.17
2019-02-16T20:42:13.941Z,71.22
2019-02-16T20:44:49.940Z,71.24
2019-02-16T20:47:38.024Z,71.29
2019-02-16T20:50:21.610Z,71.27
2019-02-16T20:53:09.089Z,71.28
2019-02-16T20:55:48.215Z,71.28
2019-02-16T20:58:37.557Z,71.31
2019-02-16T21:01:26.944Z,71.33
2019-02-16T21:04:17.144Z,71.40
2019-02-16T21:07:09.332Z,71.46
2019-02-16T21:09:58.951Z,71.57
2019-02-16T21:12:57.635Z,71.70
2019-02-16T21:15:34.551Z,71.82
2019-02-16T21:18:22.390Z,71.94
2019-02-16T21:21:12.144Z,72.01
2019-02-16T21:23:58.365Z,72.12
2019-02-16T21:26:36.912Z,72.27
2019-02-16T21:29:28.522Z,72.38
2019-02-16T21:34:45.823Z,72.80
2019-02-16T21:37:41.299Z,72.90
2019-02-16T21:40:26.646Z,73.18
2019-02-16T21:43:04.810Z,73.42
2019-02-16T21:46:07.226Z,73.65
2019-02-16T21:48:47.118Z,73.82
2019-02-16T21:54:38.646Z,74.20
2019-02-16T21:57:25.208Z,74.26
2019-02-16T22:00:14.787Z,74.45
2019-02-16T22:03:07.324Z,74.64
2019-02-16T22:06:02.916Z,74.76
2019-02-16T22:08:52.207Z,74.84
2019-02-16T22:11:39.702Z,74.93
2019-02-16T22:14:10.361Z,75.01
2019-02-16T22:16:41.559Z,75.17
2019-02-16T22:19:12.189Z,75.28
2019-02-16T22:21:42.822Z,75.43
2019-02-16T22:24:13.394Z,75.50
2019-02-16T22:26:44.024Z,75.56
2019-02-16T22:29:17.114Z,75.67
2019-02-16T22:31:47.913Z,75.76
2019-02-16T22:34:21.615Z,75.80
2019-02-16T22:36:51.994Z,75.93
2019-02-16T22:39:22.509Z,76.02
2019-02-16T22:41:53.006Z,76.15
2019-02-16T22:44:23.405Z,76.25
2019-02-16T22:46:53.760Z,76.32
2019-02-16T22:49:24.116Z,76.40
2019-02-16T22:51:55.427Z,76.50
2019-02-16T22:54:25.770Z,76.58
2019-02-16T22:56:56.286Z,76.69
2019-02-16T22:59:26.826Z,76.81
2019-02-16T23:01:57.333Z,76.96
2019-02-16T23:04:27.778Z,77.06
2019-02-16T23:07:00.976Z,77.18
2019-02-16T23:09:31.545Z,77.24
2019-02-16T23:12:01.857Z,77.35
2019-02-16T23:14:32.395Z,77.42
2019-02-16T23:17:04.610Z,77.47
2019-02-16T23:19:34.927Z,77.56
2019-02-16T23:22:05.354Z,77.64
2019-02-16T23:24:39.047Z,77.73
2019-02-16T23:27:13.628Z,77.84
2019-02-16T23:29:44.121Z,77.88
2019-02-16T23:32:17.506Z,77.96
2019-02-16T23:34:49.908Z,78.08
2019-02-16T23:37:20.144Z,78.15
2019-02-16T23:39:50.414Z,78.19
2019-02-16T23:42:20.929Z,78.23
2019-02-16T23:44:51.179Z,78.28
2019-02-16T23:47:21.408Z,78.37
2019-02-16T23:49:51.637Z,78.39
2019-02-16T23:52:21.802Z,78.50
2019-02-16T23:54:51.992Z,78.56
2019-02-16T23:57:22.298Z,78.63
2019-02-16T23:59:52.482Z,78.70
